createdAt,value
2019-03-11T00:01:27.016Z,0.90
2019-03-11T00:03:54.444Z,0.80
2019-03-11T00:06:21.874Z,1.00
2019-03-11T00:08:49.249Z,0.70
2019-03-11T00:11:16.569Z,0.90
2019-03-11T00:13:43.965Z,1.03
2019-03-11T00:16:11.384Z,0.80
2019-03-11T00:18:38.845Z,0.80
2019-03-11T00:21:06.339Z,0.80
2019-03-11T00:23:33.657Z,0.80
2019-03-11T00:26:01.391Z,0.97
2019-03-11T00:28:28.712Z,1.17
2019-03-11T00:30:56.119Z,0.90
2019-03-11T00:33:23.472Z,0.80
2019-03-11T00:35:50.798Z,0.40
2019-03-11T00:38:18.191Z,0.30
2019-03-11T00:40:45.566Z,0.20
2019-03-11T00:43:12.913Z,0.20
2019-03-11T00:45:40.196Z,0.50
2019-03-11T00:48:07.925Z,0.20
2019-03-11T00:50:35.232Z,0.40
2019-03-11T00:53:04.611Z,0.27
2019-03-11T00:55:31.522Z,0.37
2019-03-11T00:57:58.857Z,0.30
2019-03-11T01:00:27.453Z,0.40
2019-03-11T01:02:54.838Z,0.40
2019-03-11T01:05:22.165Z,0.30
2019-03-11T01:07:49.474Z,0.33
2019-03-11T01:10:16.836Z,0.30
2019-03-11T01:12:44.139Z,0.23
2019-03-11T01:15:11.462Z,0.30
2019-03-11T01:17:38.837Z,0.30
2019-03-11T01:20:07.533Z,0.20
2019-03-11T01:22:34.848Z,0.30
2019-03-11T01:25:04.659Z,0.30
2019-03-11T01:27:31.278Z,0.40
2019-03-11T01:29:58.613Z,0.50
2019-03-11T01:32:26.005Z,0.37
2019-03-11T01:34:53.422Z,0.40
2019-03-11T01:37:20.740Z,0.50
2019-03-11T01:39:48.074Z,0.50
2019-03-11T01:42:15.381Z,0.43
2019-03-11T01:44:42.713Z,0.50
2019-03-11T01:47:10.039Z,0.50
2019-03-11T01:49:37.500Z,0.60
2019-03-11T01:52:04.808Z,0.70
2019-03-11T01:54:32.161Z,0.67
2019-03-11T01:56:59.468Z,0.53
2019-03-11T01:59:26.810Z,0.53
2019-03-11T02:01:54.276Z,0.60
2019-03-11T02:04:21.598Z,0.50
2019-03-11T02:06:48.908Z,0.93
2019-03-11T02:09:16.280Z,0.70
2019-03-11T02:11:43.598Z,0.83
2019-03-11T02:14:11.294Z,0.60
2019-03-11T02:16:38.638Z,1.00
2019-03-11T02:19:05.962Z,0.70
2019-03-11T02:21:33.365Z,0.50
2019-03-11T02:24:00.678Z,0.53
2019-03-11T02:26:28.012Z,0.60
2019-03-11T02:28:55.406Z,0.47
2019-03-11T02:31:22.742Z,0.47
2019-03-11T02:33:50.059Z,0.60
2019-03-11T02:36:17.394Z,0.77
2019-03-11T02:38:44.706Z,0.77
2019-03-11T02:41:12.396Z,0.70
2019-03-11T02:43:39.733Z,1.03
2019-03-11T02:46:07.105Z,1.20
2019-03-11T02:48:34.406Z,0.90
2019-03-11T02:51:01.742Z,1.00
2019-03-11T02:53:29.060Z,1.10
2019-03-11T02:55:56.407Z,1.03
2019-03-11T02:58:23.796Z,1.20
2019-03-11T03:00:52.814Z,1.30
2019-03-11T03:03:38.326Z,1.50
2019-03-11T03:06:07.285Z,2.00
2019-03-11T03:08:34.608Z,1.33
2019-03-11T03:11:02.003Z,1.40
2019-03-11T03:13:29.321Z,2.90
2019-03-11T03:15:56.654Z,3.17
2019-03-11T03:18:24.037Z,2.70
2019-03-11T03:20:51.381Z,2.03
2019-03-11T03:23:18.697Z,1.70
2019-03-11T03:25:46.005Z,1.30
2019-03-11T03:28:13.331Z,0.93
2019-03-11T03:30:40.700Z,1.10
2019-03-11T03:33:08.001Z,1.27
2019-03-11T03:35:35.305Z,0.90
2019-03-11T03:38:02.643Z,1.00
2019-03-11T03:40:29.975Z,1.30
2019-03-11T03:42:57.443Z,2.17
2019-03-11T03:45:26.665Z,1.70
2019-03-11T03:47:54.028Z,1.60
2019-03-11T03:50:22.200Z,2.40
2019-03-11T03:52:49.513Z,2.63
2019-03-11T03:55:17.155Z,2.47
2019-03-11T03:57:44.605Z,1.67
2019-03-11T04:00:12.000Z,1.00
2019-03-11T04:02:39.422Z,1.10
2019-03-11T04:05:08.113Z,0.80
2019-03-11T04:07:35.407Z,0.90
2019-03-11T04:10:03.228Z,0.90
2019-03-11T04:12:30.545Z,1.07
2019-03-11T04:14:57.909Z,1.00
2019-03-11T04:17:25.225Z,1.10
2019-03-11T04:19:52.533Z,1.73
2019-03-11T04:22:20.036Z,0.90
2019-03-11T04:24:47.343Z,0.90
2019-03-11T04:27:14.680Z,1.20
2019-03-11T04:29:41.982Z,1.10
2019-03-11T04:32:09.303Z,0.83
2019-03-11T04:34:36.637Z,1.20
2019-03-11T04:37:03.941Z,1.00
2019-03-11T04:39:31.272Z,1.07
2019-03-11T04:41:58.575Z,0.90
2019-03-11T04:44:25.889Z,1.10
2019-03-11T04:46:53.201Z,1.27
2019-03-11T04:49:20.599Z,1.10
2019-03-11T04:51:47.909Z,1.37
2019-03-11T04:54:15.307Z,1.10
2019-03-11T04:56:42.680Z,1.37
2019-03-11T04:59:10.967Z,1.40
2019-03-11T05:01:38.309Z,1.87
2019-03-11T05:04:05.633Z,1.10
2019-03-11T05:06:32.965Z,1.50
2019-03-11T05:09:00.343Z,0.90
2019-03-11T05:11:27.719Z,1.03
2019-03-11T05:13:55.027Z,1.00
2019-03-11T05:16:22.341Z,1.20
2019-03-11T05:18:49.678Z,0.97
2019-03-11T05:21:17.072Z,1.33
2019-03-11T05:23:44.405Z,1.60
2019-03-11T05:26:11.729Z,1.87
2019-03-11T05:28:39.093Z,2.73
2019-03-11T05:31:06.411Z,2.03
2019-03-11T05:33:34.580Z,1.90
2019-03-11T05:36:01.909Z,2.03
2019-03-11T05:38:29.377Z,2.10
2019-03-11T05:40:56.753Z,1.33
2019-03-11T05:43:24.197Z,1.73
2019-03-11T05:45:51.584Z,1.40
2019-03-11T05:48:21.474Z,1.50
2019-03-11T05:50:48.850Z,2.63
2019-03-11T05:53:16.234Z,2.97
2019-03-11T05:55:43.716Z,2.10
2019-03-11T05:58:10.988Z,3.00
2019-03-11T06:00:38.469Z,3.77
2019-03-11T06:03:05.948Z,2.77
2019-03-11T06:05:33.298Z,4.07
2019-03-11T06:08:00.698Z,3.30
2019-03-11T06:10:28.160Z,3.97
2019-03-11T06:12:56.677Z,3.27
2019-03-11T06:15:24.066Z,2.83
2019-03-11T06:17:51.425Z,2.57
2019-03-11T06:20:23.185Z,2.13
2019-03-11T06:22:50.624Z,2.20
2019-03-11T06:25:17.984Z,1.90
2019-03-11T06:27:48.377Z,2.30
2019-03-11T06:30:15.759Z,2.50
2019-03-11T06:32:43.176Z,1.60
2019-03-11T06:35:10.547Z,1.73
2019-03-11T06:37:38.060Z,2.17
2019-03-11T06:40:06.581Z,2.13
2019-03-11T06:42:33.897Z,1.37
2019-03-11T06:45:01.334Z,1.30
2019-03-11T06:47:28.661Z,1.27
2019-03-11T06:49:56.060Z,1.30
2019-03-11T06:52:23.400Z,1.20
2019-03-11T06:54:50.841Z,1.20
2019-03-11T06:57:21.476Z,1.80
2019-03-11T06:59:50.443Z,1.30
2019-03-11T07:02:17.777Z,1.57
2019-03-11T07:04:45.110Z,1.80
2019-03-11T07:07:12.460Z,1.87
2019-03-11T07:09:42.148Z,1.40
2019-03-11T07:12:09.514Z,1.70
2019-03-11T07:14:36.820Z,1.40
2019-03-11T07:17:04.246Z,1.60
2019-03-11T07:19:33.284Z,2.40
2019-03-11T07:22:01.632Z,1.57
2019-03-11T07:24:29.098Z,1.70
2019-03-11T07:26:56.499Z,1.60
2019-03-11T07:29:23.838Z,2.07
2019-03-11T07:31:51.224Z,1.63
2019-03-11T07:34:18.699Z,1.50
2019-03-11T07:36:46.038Z,1.30
2019-03-11T07:39:13.390Z,1.60
2019-03-11T07:41:40.802Z,2.30
2019-03-11T07:44:08.122Z,2.30
2019-03-11T07:46:35.530Z,2.50
2019-03-11T07:49:02.938Z,2.10
2019-03-11T07:51:30.329Z,1.53
2019-03-11T07:53:57.752Z,1.53
2019-03-11T07:56:25.113Z,1.40
2019-03-11T07:58:52.434Z,2.23
2019-03-11T08:01:19.762Z,1.90
2019-03-11T08:03:47.126Z,1.80
2019-03-11T08:06:18.382Z,2.17
2019-03-11T08:08:43.390Z,2.30
2019-03-11T08:11:10.719Z,2.73
2019-03-11T08:13:38.020Z,2.00
2019-03-11T08:16:05.358Z,1.83
2019-03-11T08:18:35.252Z,2.20
2019-03-11T08:21:02.546Z,2.17
2019-03-11T08:23:29.978Z,2.40
2019-03-11T08:25:57.303Z,1.90
2019-03-11T08:28:24.658Z,3.10
2019-03-11T08:30:52.102Z,3.27
2019-03-11T08:33:19.465Z,2.97
2019-03-11T08:35:46.798Z,2.13
2019-03-11T08:38:14.180Z,3.03
2019-03-11T08:40:43.114Z,2.70
2019-03-11T08:43:10.919Z,2.33
2019-03-11T08:45:38.271Z,1.60
2019-03-11T08:48:05.596Z,1.93
2019-03-11T08:50:32.957Z,1.93
2019-03-11T08:53:00.363Z,1.67
2019-03-11T08:55:27.673Z,1.57
2019-03-11T08:57:55.006Z,1.80
2019-03-11T09:00:25.282Z,1.40
2019-03-11T09:02:52.618Z,2.17
2019-03-11T09:05:20.475Z,1.80
2019-03-11T09:07:47.876Z,1.67
2019-03-11T09:10:15.796Z,1.83
2019-03-11T09:12:43.161Z,1.37
2019-03-11T09:15:11.621Z,1.50
2019-03-11T09:17:39.135Z,1.43
2019-03-11T09:20:13.092Z,1.20
2019-03-11T09:22:40.404Z,1.30
2019-03-11T09:25:09.446Z,1.20
2019-03-11T09:27:36.789Z,1.07
2019-03-11T09:30:05.662Z,1.50
2019-03-11T09:32:33.001Z,1.20
2019-03-11T09:35:00.387Z,1.80
2019-03-11T09:37:27.698Z,1.90
2019-03-11T09:39:55.037Z,1.70
2019-03-11T09:42:22.401Z,1.10
2019-03-11T09:44:49.723Z,1.40
2019-03-11T09:47:17.050Z,1.30
2019-03-11T09:49:44.339Z,1.20
2019-03-11T09:52:11.692Z,1.40
2019-03-11T09:54:40.072Z,1.40
2019-03-11T09:57:07.381Z,0.90
2019-03-11T09:59:34.745Z,0.70
2019-03-11T10:02:02.055Z,1.10
2019-03-11T10:04:29.458Z,0.80
2019-03-11T10:06:56.898Z,1.40
2019-03-11T10:09:24.292Z,1.00
2019-03-11T10:11:51.553Z,1.00
2019-03-11T10:14:18.957Z,1.30
2019-03-11T10:16:46.312Z,1.00
2019-03-11T10:19:13.623Z,1.17
2019-03-11T10:21:41.219Z,1.07
2019-03-11T10:24:08.695Z,1.20
2019-03-11T10:26:36.277Z,1.10
2019-03-11T10:29:03.606Z,1.33
2019-03-11T10:31:31.003Z,1.20
2019-03-11T10:33:58.340Z,0.80
2019-03-11T10:36:25.662Z,1.00
2019-03-11T10:38:53.032Z,1.40
2019-03-11T10:41:20.375Z,0.80
2019-03-11T10:43:48.833Z,0.80
2019-03-11T10:46:17.916Z,1.00
2019-03-11T10:48:45.208Z,1.10
2019-03-11T10:51:12.619Z,1.07
2019-03-11T10:53:39.925Z,0.80
2019-03-11T10:56:07.272Z,0.70
2019-03-11T10:58:34.584Z,0.70
2019-03-11T11:01:01.951Z,0.83
2019-03-11T11:03:29.382Z,0.70
2019-03-11T11:05:56.888Z,1.00
2019-03-11T11:08:24.256Z,1.00
2019-03-11T11:10:51.576Z,1.20
2019-03-11T11:13:18.929Z,1.00
2019-03-11T11:15:46.273Z,1.10
2019-03-11T11:18:13.784Z,1.27
2019-03-11T11:20:41.172Z,1.67
2019-03-11T11:23:08.543Z,1.00
2019-03-11T11:25:35.976Z,1.13
2019-03-11T11:28:03.575Z,0.90
2019-03-11T11:30:31.260Z,1.80
2019-03-11T11:32:58.581Z,2.00
2019-03-11T11:35:26.067Z,1.47
2019-03-11T11:37:53.526Z,0.70
2019-03-11T11:40:24.221Z,1.13
2019-03-11T11:42:51.537Z,1.13
2019-03-11T11:45:19.815Z,1.40
2019-03-11T11:47:47.132Z,1.63
2019-03-11T11:50:18.875Z,1.27
2019-03-11T11:52:46.709Z,2.10
2019-03-11T11:55:14.641Z,2.30
2019-03-11T11:57:41.976Z,1.70
2019-03-11T12:00:14.442Z,1.10
2019-03-11T12:02:41.847Z,1.00
2019-03-11T12:05:11.592Z,1.07
2019-03-11T12:07:39.000Z,1.10
2019-03-11T12:10:09.439Z,1.20
2019-03-11T12:12:36.774Z,1.43
2019-03-11T12:15:05.654Z,1.52
2019-03-11T12:17:33.056Z,1.40
2019-03-11T12:20:00.409Z,1.30
2019-03-11T12:22:27.810Z,1.67
2019-03-11T12:24:56.756Z,3.30
2019-03-11T12:27:24.505Z,1.87
2019-03-11T12:29:51.910Z,1.40
2019-03-11T12:32:19.348Z,1.60
2019-03-11T12:34:46.988Z,2.07
2019-03-11T12:37:14.312Z,2.10
2019-03-11T12:39:41.692Z,1.70
2019-03-11T12:42:09.002Z,1.50
2019-03-11T12:44:36.305Z,1.80
2019-03-11T12:47:03.694Z,2.17
2019-03-11T12:49:30.999Z,2.50
2019-03-11T12:51:58.320Z,2.10
2019-03-11T12:54:25.706Z,1.57
2019-03-11T12:56:53.078Z,1.60
2019-03-11T12:59:20.492Z,2.63
2019-03-11T13:01:48.272Z,1.57
2019-03-11T13:04:15.699Z,1.53
2019-03-11T13:06:43.017Z,1.83
2019-03-11T13:09:10.344Z,1.37
2019-03-11T13:11:37.802Z,1.20
2019-03-11T13:14:05.154Z,2.10
2019-03-11T13:16:32.548Z,2.30
2019-03-11T13:18:59.936Z,2.70
2019-03-11T13:21:27.311Z,3.93
2019-03-11T13:23:54.676Z,3.93
2019-03-11T13:26:22.001Z,3.67
2019-03-11T13:28:49.340Z,3.13
2019-03-11T13:31:16.732Z,3.03
2019-03-11T13:33:44.052Z,2.80
2019-03-11T13:36:11.383Z,3.20
2019-03-11T13:38:38.776Z,2.80
2019-03-11T13:41:06.122Z,2.60
2019-03-11T13:43:33.448Z,3.40
2019-03-11T13:46:00.837Z,2.63
2019-03-11T13:48:28.234Z,2.87
2019-03-11T13:50:55.535Z,3.30
2019-03-11T13:53:22.975Z,3.70
2019-03-11T13:55:50.474Z,3.97
2019-03-11T13:58:17.887Z,3.27
2019-03-11T14:00:56.054Z,2.73
2019-03-11T14:03:14.302Z,3.70
2019-03-11T14:05:41.719Z,3.27
2019-03-11T14:08:09.040Z,3.83
2019-03-11T14:10:36.456Z,3.77
2019-03-11T14:13:03.802Z,5.50
2019-03-11T14:15:31.122Z,4.60
2019-03-11T14:17:58.463Z,4.77
2019-03-11T14:20:25.918Z,5.23
2019-03-11T14:22:53.232Z,6.07
2019-03-11T14:25:20.655Z,5.23
2019-03-11T14:27:48.016Z,5.57
2019-03-11T14:30:16.981Z,5.53
2019-03-11T14:32:44.323Z,6.13
2019-03-11T14:35:12.110Z,5.13
2019-03-11T14:37:39.441Z,7.67
2019-03-11T14:40:13.089Z,6.53
2019-03-11T14:42:40.494Z,5.53
2019-03-11T14:45:09.297Z,7.77
2019-03-11T14:47:36.762Z,9.80
2019-03-11T14:50:04.536Z,8.33
2019-03-11T14:52:31.934Z,9.67
2019-03-11T14:54:59.563Z,14.83
2019-03-11T14:57:26.984Z,12.07
2019-03-11T14:59:54.416Z,10.53
2019-03-11T15:02:21.764Z,19.63
2019-03-11T15:04:50.953Z,13.27
2019-03-11T15:07:18.107Z,16.60
2019-03-11T15:09:51.290Z,24.40
2019-03-11T15:12:14.472Z,20.20
2019-03-11T15:14:41.923Z,18.77
2019-03-11T15:17:09.239Z,17.90
2019-03-11T15:19:36.671Z,15.73
2019-03-11T15:22:03.995Z,15.03
2019-03-11T15:24:31.390Z,13.67
2019-03-11T15:26:58.711Z,16.10
2019-03-11T15:29:26.051Z,17.77
2019-03-11T15:31:53.854Z,17.83
2019-03-11T15:34:21.197Z,18.60
2019-03-11T15:36:48.568Z,22.03
2019-03-11T15:39:15.958Z,14.53
2019-03-11T15:41:43.633Z,8.00
2019-03-11T15:44:10.969Z,7.93
2019-03-11T15:46:39.578Z,3.73
2019-03-11T15:49:07.127Z,5.13
2019-03-11T15:51:36.951Z,3.73
2019-03-11T15:54:03.445Z,6.67
2019-03-11T15:56:30.916Z,9.20
2019-03-11T15:58:58.340Z,7.60
2019-03-11T16:01:25.732Z,7.47
2019-03-11T16:03:53.197Z,9.33
2019-03-11T16:06:20.517Z,10.20
2019-03-11T16:08:47.861Z,9.80
2019-03-11T16:11:15.232Z,9.33
2019-03-11T16:13:42.654Z,10.47
2019-03-11T16:16:09.971Z,11.93
2019-03-11T16:18:37.383Z,9.83
2019-03-11T16:21:04.815Z,18.10
2019-03-11T16:23:32.197Z,13.67
2019-03-11T16:25:59.567Z,9.30
2019-03-11T16:28:28.055Z,9.37
2019-03-11T16:30:55.623Z,11.47
2019-03-11T16:33:23.022Z,11.90
2019-03-11T16:35:50.509Z,12.67
2019-03-11T16:38:20.519Z,14.73
2019-03-11T16:40:47.874Z,15.10
2019-03-11T16:43:15.201Z,15.80
2019-03-11T16:45:42.589Z,15.63
2019-03-11T16:48:09.941Z,16.93
2019-03-11T16:50:40.367Z,18.40
2019-03-11T16:53:07.696Z,20.03
2019-03-11T16:55:39.519Z,18.03
2019-03-11T16:58:06.871Z,22.57
2019-03-11T17:00:38.638Z,19.53
2019-03-11T17:03:09.771Z,21.90
2019-03-11T17:05:37.231Z,20.00
2019-03-11T17:08:04.561Z,21.70
2019-03-11T17:10:31.952Z,23.57
2019-03-11T17:12:59.634Z,21.57
2019-03-11T17:15:27.016Z,21.37
2019-03-11T17:17:54.331Z,19.57
2019-03-11T17:20:21.815Z,20.07
2019-03-11T17:22:49.131Z,18.63
2019-03-11T17:25:16.627Z,18.23
2019-03-11T17:27:43.959Z,18.57
2019-03-11T17:30:17.711Z,18.20
2019-03-11T17:32:45.063Z,18.97
2019-03-11T17:35:12.485Z,19.90
2019-03-11T17:37:39.872Z,18.60
2019-03-11T17:40:09.160Z,19.43
2019-03-11T17:42:36.480Z,23.27
2019-03-11T17:45:04.991Z,22.80
2019-03-11T17:47:32.359Z,20.97
2019-03-11T17:49:59.938Z,21.43
2019-03-11T17:52:27.278Z,22.90
2019-03-11T17:54:54.605Z,24.57
2019-03-11T17:57:25.124Z,23.80
2019-03-11T17:59:52.536Z,23.73
2019-03-11T18:02:20.001Z,23.80
2019-03-11T18:04:47.425Z,23.20
2019-03-11T18:07:14.821Z,22.97
2019-03-11T18:09:42.225Z,22.40
2019-03-11T18:12:09.630Z,24.93
2019-03-11T18:14:36.898Z,24.23
2019-03-11T18:17:04.276Z,29.50
2019-03-11T18:19:32.839Z,33.33
2019-03-11T18:22:00.156Z,35.30
2019-03-11T18:24:27.472Z,36.57
2019-03-11T18:26:55.453Z,35.67
2019-03-11T18:29:22.839Z,35.77
2019-03-11T18:32:01.279Z,36.37
2019-03-11T18:34:19.410Z,33.53
2019-03-11T18:36:46.765Z,29.37
2019-03-11T18:39:14.133Z,27.10
2019-03-11T18:41:41.590Z,26.17
2019-03-11T18:44:08.945Z,24.20
2019-03-11T18:46:36.271Z,19.83
2019-03-11T18:49:05.148Z,21.20
2019-03-11T18:51:32.644Z,20.03
2019-03-11T18:54:00.104Z,20.37
2019-03-11T18:56:30.399Z,20.33
2019-03-11T18:58:57.795Z,21.07
2019-03-11T19:01:25.173Z,20.13
2019-03-11T19:03:52.632Z,19.93
2019-03-11T19:06:19.959Z,19.27
2019-03-11T19:08:47.472Z,18.57
2019-03-11T19:11:14.798Z,17.33
2019-03-11T19:13:42.220Z,17.10
2019-03-11T19:16:09.548Z,16.87
2019-03-11T19:18:37.557Z,18.17
2019-03-11T19:21:05.179Z,17.77
2019-03-11T19:23:32.541Z,19.57
2019-03-11T19:25:59.848Z,19.87
2019-03-11T19:28:27.191Z,20.77
2019-03-11T19:30:56.623Z,19.97
2019-03-11T19:33:23.592Z,20.47
2019-03-11T19:35:50.978Z,19.93
2019-03-11T19:38:20.659Z,20.83
2019-03-11T19:40:48.027Z,20.83
2019-03-11T19:43:15.388Z,21.10
2019-03-11T19:45:42.909Z,23.00
2019-03-11T19:48:10.348Z,22.87
2019-03-11T19:50:37.761Z,21.67
2019-03-11T19:53:05.385Z,20.20
2019-03-11T19:55:32.767Z,19.00
2019-03-11T19:58:00.166Z,17.97
2019-03-11T20:00:29.263Z,19.27
2019-03-11T20:02:56.557Z,20.57
2019-03-11T20:05:25.617Z,19.77
2019-03-11T20:07:53.117Z,20.70
2019-03-11T20:10:20.564Z,23.63
2019-03-11T20:12:48.115Z,21.80
2019-03-11T20:15:15.549Z,24.27
2019-03-11T20:17:42.858Z,26.43
2019-03-11T20:20:11.890Z,27.80
2019-03-11T20:22:39.192Z,26.93
2019-03-11T20:25:11.106Z,27.63
2019-03-11T20:27:38.468Z,26.13
2019-03-11T20:30:10.721Z,24.47
2019-03-11T20:32:38.064Z,21.60
2019-03-11T20:35:05.462Z,21.03
2019-03-11T20:37:32.793Z,22.37
2019-03-11T20:40:00.117Z,21.20
2019-03-11T20:42:27.608Z,20.77
2019-03-11T20:44:54.927Z,21.27
2019-03-11T20:47:22.304Z,21.97
2019-03-11T20:49:49.718Z,20.60
2019-03-11T20:52:17.102Z,22.67
2019-03-11T20:54:44.410Z,20.60
2019-03-11T20:57:11.951Z,25.07
2019-03-11T20:59:39.276Z,26.80
2019-03-11T21:02:06.682Z,26.73
2019-03-11T21:04:33.989Z,29.17
2019-03-11T21:07:01.365Z,33.43
2019-03-11T21:09:28.722Z,38.73
2019-03-11T21:11:56.041Z,36.67
2019-03-11T21:14:23.440Z,33.30
2019-03-11T21:16:50.872Z,34.13
2019-03-11T21:19:18.196Z,31.70
2019-03-11T21:21:45.561Z,30.67
2019-03-11T21:24:13.993Z,29.27
2019-03-11T21:26:41.373Z,27.37
2019-03-11T21:29:08.779Z,27.73
2019-03-11T21:31:36.388Z,25.80
2019-03-11T21:34:03.718Z,26.27
2019-03-11T21:36:31.131Z,25.87
2019-03-11T21:38:58.597Z,24.63
2019-03-11T21:41:26.030Z,25.23
2019-03-11T21:43:53.452Z,24.17
2019-03-11T21:46:20.781Z,27.07
2019-03-11T21:48:48.143Z,26.77
2019-03-11T21:51:15.595Z,27.77
2019-03-11T21:53:43.070Z,28.17
2019-03-11T21:56:10.480Z,28.57
2019-03-11T21:58:37.839Z,25.93
2019-03-11T22:01:05.316Z,25.63
2019-03-11T22:03:32.623Z,24.83
2019-03-11T22:05:59.983Z,25.43
2019-03-11T22:08:27.409Z,24.40
2019-03-11T22:10:54.867Z,24.80
2019-03-11T22:13:22.302Z,22.93
2019-03-11T22:15:49.860Z,26.30
2019-03-11T22:18:17.606Z,25.07
2019-03-11T22:20:44.996Z,27.57
2019-03-11T22:23:12.369Z,28.07
2019-03-11T22:25:39.749Z,27.47
2019-03-11T22:28:07.112Z,27.83
2019-03-11T22:30:34.597Z,27.93
2019-03-11T22:33:01.951Z,26.00
2019-03-11T22:35:30.405Z,24.40
2019-03-11T22:37:57.737Z,23.30
2019-03-11T22:40:25.132Z,23.67
2019-03-11T22:42:52.486Z,23.57
2019-03-11T22:45:21.038Z,21.63
2019-03-11T22:47:49.130Z,20.00
2019-03-11T22:50:17.849Z,20.23
2019-03-11T22:52:45.515Z,18.40
2019-03-11T22:55:13.007Z,17.93
2019-03-11T22:57:40.405Z,16.87
2019-03-11T23:00:18.599Z,17.13
2019-03-11T23:02:46.023Z,15.13
2019-03-11T23:05:13.407Z,14.27
2019-03-11T23:07:40.711Z,12.97
2019-03-11T23:10:08.320Z,13.93
2019-03-11T23:12:35.623Z,13.47
2019-03-11T23:15:04.349Z,12.83
2019-03-11T23:17:31.677Z,11.97
2019-03-11T23:19:59.098Z,13.60
2019-03-11T23:22:26.438Z,14.30
2019-03-11T23:24:53.793Z,14.60
2019-03-11T23:27:21.524Z,13.03
2019-03-11T23:29:48.909Z,12.63
2019-03-11T23:32:16.261Z,11.73
2019-03-11T23:34:43.545Z,13.13
2019-03-11T23:37:10.890Z,13.67
2019-03-11T23:39:38.377Z,12.90
2019-03-11T23:42:05.742Z,13.57
2019-03-11T23:44:33.059Z,15.87
2019-03-11T23:47:00.488Z,16.90
2019-03-11T23:49:27.811Z,17.53
2019-03-11T23:51:55.143Z,14.87
2019-03-11T23:54:22.536Z,15.43
2019-03-11T23:56:50.039Z,14.10
2019-03-11T23:59:17.370Z,13.70
